Airfield :
LOGIN :

Register | Disclaimer

   EN    FR    IT 

 










Legend :    VFR   Marginal VFR   IFR   Intensive IFR   Very Intensive IFR
Visi :
Ceiling :
>= 8 km
>= 3000ft
5 to 8 km
1000 to 3000 ft
1500m to 5 km
500 to 1000 ft
800 to 1500m
200 to 500 ft
< 800m
< 200 ft
Symbols :   Thunderstorms  Fog  Heavy snow  Heavy precipitations  Wind > 20 kt
SIGMETs :     Misc.  Thunderstorms  Icing  Turbulence  Mountain Waves  Volcanic Ashes






- Airport Elevation : 125 ft
- IATA code : MGL


EDLN - Mönchengladbach

CURRENT METAR :
  • 021150Z 04008KT 010V080 5000 BR OVC013 03/01 Q1022

EXPIRED METARs :
  • 021120Z 04008KT 010V080 8000 OVC012 03/01 Q1022
  • 021050Z 04008KT 360V070 6000 OVC012 03/01 Q1022
  • 021020Z 03007KT 360V060 9000 OVC011 03/01 Q1023
  • 020950Z 04008KT 360V080 6000 OVC010 03/01 Q1023
  • 020920Z 03007KT 360V060 6000 -RA OVC008 03/01 Q1023

TAF TAF EDLN
Valid from the 02 at 12:00 until the 02 at 21:00 UTC


021100Z 0212/0221 04008KT 8000 OVC012
TEMPO 0212/0214 BKN007
PROB40
TEMPO 0214/0218 BKN015
PROB30
TEMPO 0219/0221 BKN008



MET'MAP, your aeronautical weather chart ! - Copyright ORBIFLY December 2007 - Disclaimer

ORBIFLY MET'MAP TEAM :

Programming & Development : Alexandra Zaïnal
Original concept : Baudouin d'Aumeries
Technical & hardware support : Manuel Goepfert
Assistance : Marc-Olivier Méhu




SOURCES & CREDITS :

   NOAA